Latest Weather Observations for Munglinup West

IDW60801

Issued at 9:33 am WST Wednesday 27 July 2016 (issued every 30 minutes, with the page automatically refreshed every 10 minutes)

About weather observations | Map of weather stations | Latest weather observations for WA | Other Formats
Station Details ID: 012044 Name: MUNGLINUP WEST Lat: -33.55 Lon: 120.70 Height: 220.0 m
Data from the previous 72 hours. | See also: Recent months at Munglinup West
Date/Time
WST
Temp
°C
App
Temp
°C
Dew
Point
°C
Rel
Hum
%
Delta-T
°C
Wind Press
QNH
hPa
Press
MSL
hPa
Rain since
9am
mm
Dir  Spd
km/h
Gust
km/h
Spd
kts
Gust
kts
27/09:30am 15.3 13.4 9.0 66 3.2 NNW 9 15 5 8 1028.6 1028.8 0.0
27/09:00am 14.5 12.6 9.1 70 2.8 NNW 9 13 5 7 1028.6 1028.8 0.0
27/08:30am 13.7 11.9 9.4 75 2.2 NNW 9 13 5 7 1028.3 1028.5 0.0
27/08:00am 12.1 11.3 9.8 86 1.2 N 4 6 2 3 1028.1 1028.2 0.0
27/07:30am 11.4 10.5 9.1 86 1.2 NNW 4 6 2 3 1028.0 1028.1 0.0
27/07:00am 11.7 10.3 9.6 87 1.1 NNW 7 11 4 6 1028.2 1028.4 0.0
27/06:30am 11.0 10.2 9.6 91 0.7 NNW 4 6 2 3 1028.1 1028.2 0.0
27/06:00am 11.2 10.1 10.0 92 0.6 NW 6 9 3 5 1028.1 1028.2 0.0
27/05:30am 11.2 10.1 10.6 96 0.3 NW 7 9 4 5 1027.7 1027.8 0.0
27/05:00am 10.8 9.9 10.6 99 0.1 NW 6 9 3 5 1027.4 1027.5 0.0
27/04:30am 10.8 9.9 10.8 100 0.0 NNW 6 9 3 5 1027.2 1027.3 0.0
27/04:00am 10.4 9.4 10.4 100 0.0 NNW 6 7 3 4 1027.0 1027.1 0.0
27/03:30am 10.5 9.6 10.5 100 0.0 N 6 6 3 3 1027.1 1027.2 0.0
27/03:00am 10.5 9.6 10.5 100 0.0 NNW 6 6 3 3 1027.3 1027.4 0.0
27/02:30am 10.5 9.4 10.5 100 0.0 NNW 7 9 4 5 1027.5 1027.6 0.0
27/02:00am 10.6 9.5 10.6 100 0.0 NW 7 9 4 5 1027.5 1027.6 0.0
27/01:30am 10.8 9.7 10.8 100 0.0 NNW 7 7 4 4 1027.6 1027.7 0.0
27/01:00am 10.9 10.1 10.9 100 0.0 NNW 6 7 3 4 1027.7 1027.8 0.0
27/12:30am 11.1 10.7 11.1 100 0.0 NNW 4 6 2 3 1027.6 1027.7 0.0
27/12:00am 11.3 11.0 11.3 100 0.0 N 4 6 2 3 1027.7 1027.8 0.0
 
Date/Time
WST
Temp
°C
App
Temp
°C
Dew
Point
°C
Rel
Hum
%
Delta-T
°C
Wind Press
QNH
hPa
Press
MSL
hPa
Rain since
9am
mm
Dir  Spd
km/h
Gust
km/h
Spd
kts
Gust
kts
26/11:30pm 10.9 11.2 10.9 100 0.0 CALM 0 0 0 0 1027.8 1027.9 0.0
26/11:00pm 11.1 11.5 11.1 100 0.0 CALM 0 0 0 0 1027.7 1027.8 0.0
26/10:30pm 11.0 11.3 11.0 100 0.0 CALM 0 0 0 0 1027.6 1027.7 0.0
26/10:00pm 11.1 11.1 11.1 100 0.0 NNW 2 2 1 1 1027.7 1027.8 0.0
26/09:30pm 11.1 11.1 11.1 100 0.0 NNW 2 6 1 3 1027.7 1027.8 0.0
26/09:00pm 10.5 9.6 10.5 100 0.0 NW 6 6 3 3 1027.8 1027.9 0.0
26/08:30pm 10.9 10.8 10.9 100 0.0 S 2 4 1 2 1027.7 1027.8 0.0
26/08:00pm 10.8 10.3 10.6 99 0.1 SSE 4 6 2 3 1027.6 1027.7 0.0
26/07:30pm 11.6 10.9 11.4 99 0.1 SSW 6 6 3 3 1027.5 1027.6 0.0
26/07:00pm 11.9 11.7 11.7 99 0.1 SSW 4 6 2 3 1027.3 1027.4 0.0
26/06:30pm 12.2 12.0 11.9 98 0.2 SSW 4 6 2 3 1027.0 1027.1 0.0
26/06:00pm 12.2 11.6 11.7 97 0.3 SSW 6 6 3 3 1026.8 1026.9 0.0
26/05:30pm 12.9 12.2 12.1 95 0.4 SSW 7 13 4 7 1026.5 1026.6 0.0
26/05:00pm 13.2 11.8 12.1 93 0.6 SSW 11 15 6 8 1026.3 1026.4 0.0
26/04:30pm 13.5 11.7 12.1 91 0.8 SSW 13 20 7 11 1026.2 1026.3 0.0
26/04:00pm 14.3 11.6 11.6 84 1.5 SW 17 22 9 12 1026.0 1026.1 0.0
26/03:30pm 14.4 11.3 11.6 83 1.5 SW 19 24 10 13 1026.0 1026.1 0.0
26/03:00pm 14.8 11.6 11.8 82 1.6 SW 20 28 11 15 1025.8 1025.9 0.0
26/02:30pm 14.7 10.9 11.3 80 1.8 WSW 22 30 12 16 1025.7 1025.8 0.0
26/02:00pm 14.6 11.2 11.4 81 1.7 SW 20 30 11 16 1025.5 1025.6 0.0
26/01:30pm 14.5 11.4 11.5 82 1.6 SW 19 26 10 14 1025.4 1025.5 0.0
26/01:00pm 14.5 11.4 11.7 83 1.5 SW 19 30 10 16 1025.6 1025.7 0.0
26/12:30pm 14.1 10.3 11.1 82 1.6 SW 22 30 12 16 1025.7 1025.8 0.0
26/12:00pm 14.2 10.4 11.0 81 1.7 WSW 22 30 12 16 1025.9 1026.0 0.0
26/11:30am 14.0 9.8 11.0 82 1.6 WSW 24 32 13 17 1026.1 1026.2 0.0
26/11:00am 13.4 9.8 10.6 83 1.5 WSW 20 28 11 15 1026.3 1026.4 0.0
26/10:30am 12.9 8.6 10.8 87 1.1 WSW 24 30 13 16 1026.3 1026.4 0.0
26/10:00am 11.9 8.3 10.5 91 0.7 W 20 28 11 15 1026.3 1026.4 0.0
26/09:30am 11.1 7.0 10.2 94 0.5 W 22 32 12 17 1026.2 1026.3 0.0
26/09:00am 10.2 6.5 10.2 100 0.0 W 20 26 11 14 1026.0 1026.1 0.0
26/08:30am 9.0 5.0 9.0 100 0.0 W 20 30 11 16 1025.8 1025.9 0.0
26/08:00am 7.7 4.3 7.7 100 0.0 WNW 15 22 8 12 1025.5 1025.6 0.0
26/07:30am 7.1 3.6 7.1 100 0.0 WNW 15 20 8 11 1025.4 1025.5 0.0
26/07:00am 6.5 3.2 6.5 100 0.0 WNW 13 17 7 9 1025.0 1025.1 0.0
26/06:30am 6.4 3.1 6.4 100 0.0 NW 13 17 7 9 1024.7 1024.8 0.0
26/06:00am 6.7 3.5 6.7 100 0.0 WNW 13 19 7 10 1024.7 1024.8 0.0
26/05:30am 6.9 3.7 6.9 100 0.0 NW 13 17 7 9 1024.5 1024.6 0.0
26/05:00am 6.7 3.5 6.7 100 0.0 NW 13 17 7 9 1024.2 1024.3 0.0
26/04:30am 6.8 4.0 6.8 100 0.0 NW 11 19 6 10 1024.1 1024.2 0.0
26/04:00am 6.9 3.7 6.9 100 0.0 NW 13 17 7 9 1024.1 1024.2 0.0
26/03:30am 7.3 4.2 7.3 100 0.0 NW 13 24 7 13 1024.0 1024.1 0.0
26/03:00am 6.6 3.7 6.6 100 0.0 NW 11 17 6 9 1024.0 1024.1 0.0
26/02:30am 6.2 2.9 6.2 100 0.0 NW 13 17 7 9 1024.2 1024.3 0.0
26/02:00am 5.2 2.0 5.2 100 0.0 NW 11 13 6 7 1024.3 1024.5 0.0
26/01:30am 5.8 3.1 5.8 100 0.0 NW 9 13 5 7 1024.8 1024.9 0.0
26/01:00am 5.9 3.3 5.9 100 0.0 NW 9 13 5 7 1024.7 1024.8 0.0
26/12:30am 6.4 3.9 6.4 100 0.0 NW 9 11 5 6 1024.9 1025.0 0.0
26/12:00am 7.7 5.8 7.7 100 0.0 WNW 7 13 4 7 1024.9 1025.0 0.0
 
Date/Time
WST
Temp
°C
App
Temp
°C
Dew
Point
°C
Rel
Hum
%
Delta-T
°C
Wind Press
QNH
hPa
Press
MSL
hPa
Rain since
9am
mm
Dir  Spd
km/h
Gust
km/h
Spd
kts
Gust
kts
25/11:30pm 8.4 6.9 8.4 100 0.0 NW 6 7 3 4 1024.9 1025.0 0.0
25/11:00pm 8.2 6.5 8.2 100 0.0 NW 7 9 4 5 1025.0 1025.1 0.0
25/10:30pm 8.2 6.5 8.2 100 0.0 W 7 13 4 7 1025.4 1025.5 0.0
25/10:00pm 8.3 6.6 8.3 100 0.0 NW 7 9 4 5 1025.4 1025.5 0.0
25/09:30pm 9.1 7.2 9.1 100 0.0 NW 9 11 5 6 1025.7 1025.8 0.0
25/09:00pm 10.3 9.3 10.3 100 0.0 WNW 6 9 3 5 1025.8 1025.9 0.0
25/08:30pm 10.4 9.4 10.2 99 0.1 NW 6 7 3 4 1025.6 1025.7 0.0
25/08:00pm 10.1 9.4 10.0 99 0.1 W 4 6 2 3 1025.9 1026.0 0.0
25/07:30pm 10.2 9.5 9.9 98 0.2 SSW 4 4 2 2 1025.5 1025.6 0.0
25/07:00pm 10.5 10.6 10.0 97 0.3 CALM 0 0 0 0 1025.1 1025.2 0.0
25/06:30pm 10.4 9.6 9.6 95 0.4 SSW 4 6 2 3 1024.9 1025.0 0.0
25/06:00pm 11.2 10.0 10.3 94 0.5 SSW 7 11 4 6 1024.9 1025.0 0.0
25/05:30pm 11.7 10.3 10.8 94 0.5 SSW 9 13 5 7 1024.8 1024.9 0.0
25/05:00pm 11.9 10.0 10.6 92 0.7 SW 11 15 6 8 1024.6 1024.7 0.0
25/04:30pm 12.4 10.1 10.6 89 0.9 SSW 13 19 7 10 1024.5 1024.6 0.0
25/04:00pm 13.1 10.4 10.3 83 1.5 SW 15 19 8 10 1024.3 1024.5 0.0
25/03:30pm 14.0 11.4 10.6 80 1.8 SW 15 20 8 11 1024.1 1024.2 0.0
25/03:00pm 14.8 12.5 10.4 75 2.3 SW 13 17 7 9 1023.9 1024.0 0.0
25/02:30pm 14.7 11.8 10.9 78 2.0 SSW 17 24 9 13 1024.0 1024.1 0.0
25/02:00pm 14.6 11.8 10.0 74 2.4 SW 15 26 8 14 1024.1 1024.2 0.0
25/01:30pm 15.4 11.9 10.2 71 2.8 SW 19 24 10 13 1024.1 1024.2 0.0
25/01:00pm 14.0 10.3 9.6 75 2.3 WSW 19 24 10 13 1024.5 1024.6 0.0
25/12:30pm 14.3 10.5 9.7 74 2.4 WSW 20 28 11 15 1024.9 1025.0 0.0
25/12:00pm 14.5 11.0 10.3 76 2.2 WSW 19 24 10 13 1025.2 1025.3 0.0
25/11:30am 14.0 10.9 10.2 78 2.0 WSW 17 24 9 13 1025.6 1025.7 0.0
25/11:00am 13.4 10.7 10.4 82 1.6 WSW 15 20 8 11 1026.1 1026.2 0.0
25/10:30am 12.8 9.7 10.3 85 1.3 WSW 17 24 9 13 1026.2 1026.3 0.0
25/10:00am 11.7 8.5 9.9 89 0.9 WSW 17 22 9 12 1026.4 1026.5 0.0
25/09:30am 10.6 7.3 9.5 93 0.6 W 17 20 9 11 1026.4 1026.5 0.0
25/09:00am 9.9 6.8 9.0 94 0.4 W 15 20 8 11 1026.2 1026.3 0.0
25/08:30am 9.5 6.0 8.6 94 0.4 W 17 20 9 11 1026.0 1026.1 0.0
25/08:00am 8.3 5.3 7.5 95 0.4 W 13 19 7 10 1025.9 1026.0 0.0
25/07:30am 7.8 4.7 7.2 96 0.3 W 13 20 7 11 1025.5 1025.6 0.0
25/07:00am 7.7 4.6 7.3 97 0.2 WNW 13 19 7 10 1025.4 1025.5 0.0
25/06:30am 7.2 4.8 6.9 98 0.1 WNW 9 13 5 7 1025.0 1025.1 0.0
25/06:00am 7.0 4.5 6.7 98 0.1 WNW 9 15 5 8 1024.9 1025.0 0.0
25/05:30am 6.7 3.4 6.3 97 0.2 WNW 13 17 7 9 1024.6 1024.7 0.0
25/05:00am 6.8 3.5 6.4 97 0.2 WNW 13 19 7 10 1024.2 1024.3 0.0
25/04:30am 6.5 3.1 5.9 96 0.3 WNW 13 17 7 9 1024.2 1024.3 0.0
25/04:00am 6.4 3.3 5.7 95 0.3 WNW 11 17 6 9 1024.2 1024.3 0.0
25/03:30am 6.7 2.9 5.8 94 0.4 WNW 15 22 8 12 1024.6 1024.7 0.0
25/03:00am 6.9 3.5 5.8 93 0.5 WNW 13 19 7 10 1024.7 1024.8 0.0
25/02:30am 6.7 2.8 5.5 92 0.5 WNW 15 20 8 11 1024.7 1024.8 0.0
25/02:00am 6.3 2.3 5.1 92 0.5 WNW 15 20 8 11 1024.8 1024.9 0.0
25/01:30am 6.1 2.5 4.9 92 0.5 WNW 13 19 7 10 1024.8 1024.9 0.0
25/01:00am 5.9 2.2 4.5 91 0.6 NW 13 17 7 9 1024.6 1024.7 0.0
25/12:30am 6.1 2.4 4.6 90 0.7 NW 13 15 7 8 1024.9 1025.0 0.0
25/12:00am 6.2 2.9 4.5 89 0.7 NW 11 17 6 9 1025.2 1025.3 0.0
 
Date/Time
WST
Temp
°C
App
Temp
°C
Dew
Point
°C
Rel
Hum
%
Delta-T
°C
Wind Press
QNH
hPa
Press
MSL
hPa
Rain since
9am
mm
Dir  Spd
km/h
Gust
km/h
Spd
kts
Gust
kts
24/11:30pm 6.7 3.0 4.7 87 0.9 NW 13 15 7 8 1025.2 1025.3 0.0
24/11:00pm 7.1 3.9 4.9 86 1.0 NW 11 13 6 7 1025.4 1025.5 0.0
24/10:30pm 8.2 4.7 5.5 83 1.2 WNW 13 19 7 10 1025.3 1025.4 0.0
24/10:00pm 9.1 4.5 5.8 80 1.5 W 19 30 10 16 1025.6 1025.7 0.0
24/09:30pm 9.2 5.4 5.9 80 1.5 W 15 22 8 12 1025.6 1025.7 0.0
24/09:00pm 9.3 5.2 6.0 80 1.5 W 17 20 9 11 1025.6 1025.7 0.0
24/08:30pm 9.4 6.2 6.7 83 1.3 W 13 17 7 9 1025.6 1025.7 0.0
24/08:00pm 9.8 6.9 6.7 81 1.5 W 11 17 6 9 1025.5 1025.6 0.0
24/07:30pm 9.9 7.1 7.0 82 1.4 W 11 13 6 7 1025.5 1025.6 0.0
24/07:00pm 10.2 7.8 6.9 80 1.6 W 9 13 5 7 1025.4 1025.5 0.0
24/06:30pm 10.4 7.1 6.5 77 1.8 W 13 19 7 10 1025.0 1025.1 0.0
24/06:00pm 10.8 7.9 6.4 74 2.1 WNW 11 17 6 9 1024.7 1024.8 0.0
24/05:30pm 11.0 8.1 6.4 73 2.2 WNW 11 17 6 9 1024.3 1024.5 0.0
24/05:00pm 11.1 8.2 6.5 73 2.2 WNW 11 15 6 8 1024.3 1024.5 0.0
24/04:30pm 11.4 8.9 6.7 73 2.3 WNW 9 17 5 9 1024.2 1024.3 0.0
24/04:00pm 11.7 8.9 7.0 73 2.3 WNW 11 15 6 8 1024.2 1024.3 0.0
24/03:30pm 11.8 8.4 7.7 76 2.0 W 15 17 8 9 1024.2 1024.3 0.0
24/03:00pm 11.6 7.9 7.9 78 1.8 W 17 22 9 12 1024.1 1024.2 0.0
24/02:30pm 11.8 8.8 7.9 77 1.9 W 13 17 7 9 1024.1 1024.2 0.0
24/02:00pm 11.6 8.7 8.3 80 1.6 WSW 13 20 7 11 1024.1 1024.2 0.0
24/01:30pm 11.4 7.4 8.3 81 1.5 WSW 19 24 10 13 1024.3 1024.5 0.0
24/01:00pm 11.9 8.6 8.2 78 1.8 W 15 19 8 10 1024.7 1024.8 0.0
24/12:30pm 11.7 8.4 8.0 78 1.8 W 15 22 8 12 1025.0 1025.1 0.0
24/12:00pm 12.1 9.8 9.1 82 1.5 W 11 20 6 11 1025.2 1025.3 0.0
24/11:30am 10.9 7.0 8.7 86 1.1 WSW 19 26 10 14 1025.6 1025.7 0.0
24/11:00am 10.9 7.8 8.7 86 1.1 WSW 15 22 8 12 1026.0 1026.1 0.0
24/10:30am 9.7 6.5 8.3 91 0.7 WSW 15 20 8 11 1026.2 1026.3 0.0
24/10:00am 9.5 5.5 8.1 91 0.7 WSW 19 24 10 13 1026.1 1026.2 0.0

Other Formats:

Comma delimited format used in spreadsheet applications
http://www.bom.gov.au/fwo/IDW60801/IDW60801.95644.axf

JavaScript Object Notation format (JSON) in row-major order
http://www.bom.gov.au/fwo/IDW60801/IDW60801.95644.json